sensor_id;sensor_type;location;lat;lon;timestamp;P1;durP1;ratioP1;P2;durP2;ratioP2
14015;SDS011;7083;48.854;9.158;2024-03-23T00:56:36;7.43;;;6.83;;
14015;SDS011;7083;48.854;9.158;2024-03-23T00:59:36;7.90;;;7.13;;
14015;SDS011;7083;48.854;9.158;2024-03-23T01:02:50;6.80;;;6.13;;
14015;SDS011;7083;48.854;9.158;2024-03-23T01:05:23;10.30;;;7.00;;
14015;SDS011;7083;48.854;9.158;2024-03-23T01:07:54;7.40;;;6.73;;
14015;SDS011;7083;48.854;9.158;2024-03-23T01:10:21;9.00;;;6.60;;
14015;SDS011;7083;48.854;9.158;2024-03-23T01:13:02;7.20;;;5.13;;
14015;SDS011;7083;48.854;9.158;2024-03-23T01:15:29;5.17;;;4.20;;
14015;SDS011;7083;48.854;9.158;2024-03-23T01:17:55;4.43;;;4.03;;
14015;SDS011;7083;48.854;9.158;2024-03-23T01:20:22;3.93;;;3.63;;
14015;SDS011;7083;48.854;9.158;2024-03-23T01:22:56;3.73;;;3.50;;
14015;SDS011;7083;48.854;9.158;2024-03-23T01:25:29;3.90;;;3.60;;
14015;SDS011;7083;48.854;9.158;2024-03-23T01:27:55;3.80;;;3.50;;
14015;SDS011;7083;48.854;9.158;2024-03-23T01:30:23;3.63;;;3.33;;
14015;SDS011;7083;48.854;9.158;2024-03-23T01:32:48;3.23;;;3.07;;
14015;SDS011;7083;48.854;9.158;2024-03-23T01:35:15;3.67;;;3.10;;
14015;SDS011;7083;48.854;9.158;2024-03-23T01:37:41;4.27;;;3.23;;
14015;SDS011;7083;48.854;9.158;2024-03-23T01:40:08;2.57;;;2.43;;
14015;SDS011;7083;48.854;9.158;2024-03-23T01:42:34;2.97;;;2.77;;
14015;SDS011;7083;48.854;9.158;2024-03-23T01:45:01;3.23;;;3.03;;
14015;SDS011;7083;48.854;9.158;2024-03-23T01:47:28;2.30;;;2.20;;
14015;SDS011;7083;48.854;9.158;2024-03-23T01:49:55;2.50;;;2.30;;
14015;SDS011;7083;48.854;9.158;2024-03-23T01:52:22;2.87;;;2.70;;
14015;SDS011;7083;48.854;9.158;2024-03-23T01:54:48;2.30;;;2.20;;
14015;SDS011;7083;48.854;9.158;2024-03-23T01:57:15;2.83;;;2.43;;
14015;SDS011;7083;48.854;9.158;2024-03-23T01:59:41;3.30;;;2.53;;
14015;SDS011;7083;48.854;9.158;2024-03-23T02:02:07;2.70;;;2.60;;
14015;SDS011;7083;48.854;9.158;2024-03-23T02:04:35;3.77;;;2.53;;
14015;SDS011;7083;48.854;9.158;2024-03-23T02:07:01;2.57;;;2.43;;
14015;SDS011;7083;48.854;9.158;2024-03-23T02:09:34;3.00;;;2.60;;
14015;SDS011;7083;48.854;9.158;2024-03-23T02:12:01;2.93;;;2.30;;
14015;SDS011;7083;48.854;9.158;2024-03-23T02:14:30;3.60;;;2.77;;
14015;SDS011;7083;48.854;9.158;2024-03-23T02:16:55;2.20;;;2.10;;
14015;SDS011;7083;48.854;9.158;2024-03-23T02:19:22;2.33;;;2.23;;
14015;SDS011;7083;48.854;9.158;2024-03-23T02:21:50;2.50;;;2.30;;
14015;SDS011;7083;48.854;9.158;2024-03-23T02:24:26;2.70;;;2.50;;
14015;SDS011;7083;48.854;9.158;2024-03-23T02:26:54;2.47;;;2.27;;
14015;SDS011;7083;48.854;9.158;2024-03-23T02:29:23;2.50;;;2.33;;
14015;SDS011;7083;48.854;9.158;2024-03-23T02:31:49;4.37;;;3.00;;
14015;SDS011;7083;48.854;9.158;2024-03-23T02:34:15;2.37;;;2.20;;
14015;SDS011;7083;48.854;9.158;2024-03-23T02:36:41;4.03;;;2.30;;
14015;SDS011;7083;48.854;9.158;2024-03-23T02:39:08;2.60;;;2.50;;
14015;SDS011;7083;48.854;9.158;2024-03-23T02:41:36;2.37;;;2.27;;
14015;SDS011;7083;48.854;9.158;2024-03-23T02:44:06;3.30;;;3.00;;
14015;SDS011;7083;48.854;9.158;2024-03-23T02:46:32;2.60;;;2.40;;
14015;SDS011;7083;48.854;9.158;2024-03-23T02:48:58;2.67;;;2.57;;
14015;SDS011;7083;48.854;9.158;2024-03-23T02:51:24;2.37;;;2.27;;
14015;SDS011;7083;48.854;9.158;2024-03-23T02:53:51;2.30;;;2.20;;
14015;SDS011;7083;48.854;9.158;2024-03-23T02:56:17;4.70;;;2.40;;
14015;SDS011;7083;48.854;9.158;2024-03-23T02:58:45;2.93;;;2.20;;
14015;SDS011;7083;48.854;9.158;2024-03-23T03:01:11;2.70;;;2.50;;
14015;SDS011;7083;48.854;9.158;2024-03-23T03:03:37;3.00;;;2.30;;
14015;SDS011;7083;48.854;9.158;2024-03-23T03:06:03;2.70;;;2.50;;
14015;SDS011;7083;48.854;9.158;2024-03-23T03:08:30;2.73;;;2.53;;
14015;SDS011;7083;48.854;9.158;2024-03-23T03:10:56;2.83;;;2.53;;
14015;SDS011;7083;48.854;9.158;2024-03-23T03:13:23;2.90;;;2.70;;
14015;SDS011;7083;48.854;9.158;2024-03-23T03:15:53;2.87;;;2.50;;
14015;SDS011;7083;48.854;9.158;2024-03-23T03:18:19;3.43;;;2.47;;
14015;SDS011;7083;48.854;9.158;2024-03-23T03:20:47;4.63;;;2.30;;
14015;SDS011;7083;48.854;9.158;2024-03-23T03:23:14;2.53;;;2.43;;
14015;SDS011;7083;48.854;9.158;2024-03-23T03:25:40;2.50;;;2.40;;
14015;SDS011;7083;48.854;9.158;2024-03-23T03:28:09;2.67;;;2.50;;
14015;SDS011;7083;48.854;9.158;2024-03-23T03:30:35;2.40;;;2.30;;
14015;SDS011;7083;48.854;9.158;2024-03-23T03:33:03;2.73;;;2.53;;
14015;SDS011;7083;48.854;9.158;2024-03-23T03:35:29;2.33;;;2.23;;
14015;SDS011;7083;48.854;9.158;2024-03-23T03:37:56;3.70;;;2.70;;
14015;SDS011;7083;48.854;9.158;2024-03-23T03:40:21;2.83;;;2.63;;
14015;SDS011;7083;48.854;9.158;2024-03-23T03:42:49;2.33;;;2.23;;
14015;SDS011;7083;48.854;9.158;2024-03-23T03:45:15;2.87;;;2.67;;
14015;SDS011;7083;48.854;9.158;2024-03-23T03:47:42;2.63;;;2.47;;
14015;SDS011;7083;48.854;9.158;2024-03-23T03:50:09;2.20;;;2.10;;
14015;SDS011;7083;48.854;9.158;2024-03-23T03:52:36;2.37;;;2.17;;
14015;SDS011;7083;48.854;9.158;2024-03-23T03:55:12;3.03;;;2.83;;
14015;SDS011;7083;48.854;9.158;2024-03-23T03:58:03;3.20;;;3.00;;
14015;SDS011;7083;48.854;9.158;2024-03-23T04:00:29;3.10;;;2.90;;
14015;SDS011;7083;48.854;9.158;2024-03-23T04:02:56;2.53;;;2.37;;
14015;SDS011;7083;48.854;9.158;2024-03-23T04:05:23;3.13;;;2.93;;
14015;SDS011;7083;48.854;9.158;2024-03-23T04:07:50;2.73;;;2.53;;
14015;SDS011;7083;48.854;9.158;2024-03-23T04:10:17;2.70;;;2.50;;
14015;SDS011;7083;48.854;9.158;2024-03-23T04:12:44;2.63;;;2.53;;
14015;SDS011;7083;48.854;9.158;2024-03-23T04:15:11;3.03;;;2.83;;
14015;SDS011;7083;48.854;9.158;2024-03-23T04:17:42;2.73;;;2.60;;
14015;SDS011;7083;48.854;9.158;2024-03-23T04:20:08;3.13;;;2.93;;
14015;SDS011;7083;48.854;9.158;2024-03-23T04:22:52;3.80;;;3.30;;
14015;SDS011;7083;48.854;9.158;2024-03-23T04:25:19;3.27;;;3.00;;
14015;SDS011;7083;48.854;9.158;2024-03-23T04:27:45;3.23;;;3.03;;
14015;SDS011;7083;48.854;9.158;2024-03-23T04:30:19;6.30;;;4.10;;
14015;SDS011;7083;48.854;9.158;2024-03-23T04:33:01;4.97;;;4.53;;
14015;SDS011;7083;48.854;9.158;2024-03-23T04:40:35;5.27;;;4.77;;
14015;SDS011;7083;48.854;9.158;2024-03-23T04:43:02;7.00;;;5.60;;
14015;SDS011;7083;48.854;9.158;2024-03-23T04:45:29;6.87;;;6.30;;
14015;SDS011;7083;48.854;9.158;2024-03-23T04:47:56;5.60;;;5.20;;
14015;SDS011;7083;48.854;9.158;2024-03-23T04:50:22;7.27;;;6.77;;
14015;SDS011;7083;48.854;9.158;2024-03-23T04:52:49;10.07;;;9.17;;
14015;SDS011;7083;48.854;9.158;2024-03-23T04:55:16;12.53;;;11.23;;
14015;SDS011;7083;48.854;9.158;2024-03-23T04:57:50;13.53;;;12.13;;
14015;SDS011;7083;48.854;9.158;2024-03-23T05:00:19;14.63;;;13.43;;
14015;SDS011;7083;48.854;9.158;2024-03-23T05:02:44;17.63;;;15.70;;
14015;SDS011;7083;48.854;9.158;2024-03-23T05:05:11;17.57;;;14.93;;
14015;SDS011;7083;48.854;9.158;2024-03-23T05:07:37;18.73;;;16.77;;
14015;SDS011;7083;48.854;9.158;2024-03-23T05:10:04;20.47;;;16.77;;
14015;SDS011;7083;48.854;9.158;2024-03-23T05:12:31;16.57;;;14.90;;
14015;SDS011;7083;48.854;9.158;2024-03-23T05:14:59;20.07;;;17.97;;
14015;SDS011;7083;48.854;9.158;2024-03-23T05:17:24;18.67;;;16.87;;
14015;SDS011;7083;48.854;9.158;2024-03-23T05:19:51;21.07;;;18.97;;
14015;SDS011;7083;48.854;9.158;2024-03-23T05:22:17;20.07;;;17.90;;
14015;SDS011;7083;48.854;9.158;2024-03-23T05:24:44;18.83;;;16.97;;
14015;SDS011;7083;48.854;9.158;2024-03-23T05:27:10;19.83;;;17.90;;
14015;SDS011;7083;48.854;9.158;2024-03-23T05:29:37;20.53;;;18.13;;
14015;SDS011;7083;48.854;9.158;2024-03-23T05:32:04;18.40;;;16.57;;
14015;SDS011;7083;48.854;9.158;2024-03-23T05:34:31;21.30;;;16.47;;
14015;SDS011;7083;48.854;9.158;2024-03-23T05:36:57;20.20;;;17.90;;
14015;SDS011;7083;48.854;9.158;2024-03-23T05:39:23;19.17;;;17.10;;
14015;SDS011;7083;48.854;9.158;2024-03-23T05:41:49;18.13;;;15.20;;
14015;SDS011;7083;48.854;9.158;2024-03-23T05:44:16;16.50;;;14.77;;
14015;SDS011;7083;48.854;9.158;2024-03-23T05:46:42;14.40;;;13.00;;
14015;SDS011;7083;48.854;9.158;2024-03-23T05:49:15;12.97;;;11.77;;
14015;SDS011;7083;48.854;9.158;2024-03-23T05:51:41;11.13;;;10.07;;
14015;SDS011;7083;48.854;9.158;2024-03-23T05:54:08;8.43;;;7.60;;
14015;SDS011;7083;48.854;9.158;2024-03-23T05:56:34;8.33;;;7.57;;
14015;SDS011;7083;48.854;9.158;2024-03-23T05:59:01;9.13;;;8.27;;
14015;SDS011;7083;48.854;9.158;2024-03-23T06:01:28;9.37;;;8.47;;
14015;SDS011;7083;48.854;9.158;2024-03-23T06:03:57;10.57;;;9.37;;
14015;SDS011;7083;48.854;9.158;2024-03-23T06:06:24;9.50;;;8.60;;
14015;SDS011;7083;48.854;9.158;2024-03-23T06:08:51;9.13;;;8.23;;
14015;SDS011;7083;48.854;9.158;2024-03-23T06:11:17;10.87;;;8.47;;
14015;SDS011;7083;48.854;9.158;2024-03-23T06:13:43;8.93;;;8.13;;
14015;SDS011;7083;48.854;9.158;2024-03-23T06:16:09;7.63;;;6.93;;
14015;SDS011;7083;48.854;9.158;2024-03-23T06:18:36;7.50;;;6.70;;
14015;SDS011;7083;48.854;9.158;2024-03-23T06:21:02;8.17;;;7.37;;
14015;SDS011;7083;48.854;9.158;2024-03-23T06:23:30;7.53;;;6.83;;
14015;SDS011;7083;48.854;9.158;2024-03-23T06:25:56;6.67;;;6.17;;
14015;SDS011;7083;48.854;9.158;2024-03-23T06:28:23;6.83;;;6.23;;
14015;SDS011;7083;48.854;9.158;2024-03-23T06:30:49;5.90;;;4.93;;
14015;SDS011;7083;48.854;9.158;2024-03-23T06:33:15;5.80;;;5.13;;
14015;SDS011;7083;48.854;9.158;2024-03-23T06:35:41;5.53;;;4.87;;
14015;SDS011;7083;48.854;9.158;2024-03-23T06:38:08;6.67;;;4.70;;
14015;SDS011;7083;48.854;9.158;2024-03-23T06:40:37;5.07;;;4.00;;
14015;SDS011;7083;48.854;9.158;2024-03-23T06:43:03;7.30;;;3.50;;
14015;SDS011;7083;48.854;9.158;2024-03-23T06:45:30;4.30;;;3.90;;
14015;SDS011;7083;48.854;9.158;2024-03-23T06:47:57;3.60;;;3.20;;
14015;SDS011;7083;48.854;9.158;2024-03-23T06:50:23;2.83;;;2.60;;
14015;SDS011;7083;48.854;9.158;2024-03-23T06:53:05;2.30;;;2.20;;
14015;SDS011;7083;48.854;9.158;2024-03-23T06:55:32;2.00;;;1.90;;
14015;SDS011;7083;48.854;9.158;2024-03-23T06:57:59;2.20;;;2.10;;
14015;SDS011;7083;48.854;9.158;2024-03-23T07:00:25;2.00;;;1.90;;
14015;SDS011;7083;48.854;9.158;2024-03-23T07:05:25;3.20;;;1.87;;
14015;SDS011;7083;48.854;9.158;2024-03-23T07:07:51;1.90;;;1.90;;
14015;SDS011;7083;48.854;9.158;2024-03-23T07:10:17;2.07;;;1.97;;
14015;SDS011;7083;48.854;9.158;2024-03-23T07:12:43;2.30;;;1.93;;
14015;SDS011;7083;48.854;9.158;2024-03-23T07:15:11;2.03;;;1.93;;
14015;SDS011;7083;48.854;9.158;2024-03-23T07:17:37;2.13;;;2.03;;
14015;SDS011;7083;48.854;9.158;2024-03-23T07:20:04;2.07;;;1.97;;
14015;SDS011;7083;48.854;9.158;2024-03-23T07:22:35;2.37;;;2.17;;
14015;SDS011;7083;48.854;9.158;2024-03-23T07:25:04;1.80;;;1.80;;
14015;SDS011;7083;48.854;9.158;2024-03-23T07:27:54;2.10;;;2.00;;
14015;SDS011;7083;48.854;9.158;2024-03-23T07:30:30;2.03;;;1.93;;
14015;SDS011;7083;48.854;9.158;2024-03-23T07:32:58;1.60;;;1.60;;
14015;SDS011;7083;48.854;9.158;2024-03-23T07:35:44;1.57;;;1.57;;
14015;SDS011;7083;48.854;9.158;2024-03-23T07:38:10;1.67;;;1.67;;
14015;SDS011;7083;48.854;9.158;2024-03-23T07:40:37;1.80;;;1.80;;
14015;SDS011;7083;48.854;9.158;2024-03-23T07:43:03;2.13;;;2.03;;
14015;SDS011;7083;48.854;9.158;2024-03-23T07:45:34;1.37;;;1.37;;
14015;SDS011;7083;48.854;9.158;2024-03-23T07:48:00;1.50;;;1.50;;
14015;SDS011;7083;48.854;9.158;2024-03-23T07:50:26;2.00;;;1.90;;
14015;SDS011;7083;48.854;9.158;2024-03-23T07:52:52;1.83;;;1.73;;
14015;SDS011;7083;48.854;9.158;2024-03-23T07:55:19;1.60;;;1.53;;
14015;SDS011;7083;48.854;9.158;2024-03-23T07:57:46;2.00;;;1.90;;
14015;SDS011;7083;48.854;9.158;2024-03-23T08:00:16;2.27;;;2.17;;
14015;SDS011;7083;48.854;9.158;2024-03-23T08:02:50;3.23;;;1.97;;
14015;SDS011;7083;48.854;9.158;2024-03-23T08:05:17;2.87;;;1.80;;
14015;SDS011;7083;48.854;9.158;2024-03-23T08:07:43;1.37;;;1.37;;
14015;SDS011;7083;48.854;9.158;2024-03-23T08:10:10;1.70;;;1.60;;
14015;SDS011;7083;48.854;9.158;2024-03-23T08:12:37;1.57;;;1.10;;
14015;SDS011;7083;48.854;9.158;2024-03-23T08:15:04;1.50;;;1.50;;
14015;SDS011;7083;48.854;9.158;2024-03-23T08:17:31;1.00;;;1.00;;
14015;SDS011;7083;48.854;9.158;2024-03-23T08:19:59;1.10;;;1.10;;
14015;SDS011;7083;48.854;9.158;2024-03-23T08:22:24;1.50;;;1.50;;
14015;SDS011;7083;48.854;9.158;2024-03-23T08:24:51;1.47;;;1.47;;
14015;SDS011;7083;48.854;9.158;2024-03-23T08:27:17;1.20;;;1.20;;
14015;SDS011;7083;48.854;9.158;2024-03-23T08:29:46;1.47;;;1.47;;
14015;SDS011;7083;48.854;9.158;2024-03-23T08:32:15;1.53;;;1.53;;
14015;SDS011;7083;48.854;9.158;2024-03-23T08:35:01;1.10;;;1.10;;
14015;SDS011;7083;48.854;9.158;2024-03-23T08:37:33;1.20;;;1.20;;
14015;SDS011;7083;48.854;9.158;2024-03-23T08:40:06;4.77;;;2.17;;
14015;SDS011;7083;48.854;9.158;2024-03-23T08:42:42;1.87;;;1.77;;
14015;SDS011;7083;48.854;9.158;2024-03-23T08:45:28;2.50;;;1.70;;
14015;SDS011;7083;48.854;9.158;2024-03-23T08:47:53;2.70;;;2.53;;
14015;SDS011;7083;48.854;9.158;2024-03-23T08:50:24;3.57;;;2.03;;
14015;SDS011;7083;48.854;9.158;2024-03-23T08:52:50;9.63;;;2.67;;
14015;SDS011;7083;48.854;9.158;2024-03-23T08:55:19;2.90;;;2.57;;
14015;SDS011;7083;48.854;9.158;2024-03-23T08:57:45;2.77;;;2.40;;
14015;SDS011;7083;48.854;9.158;2024-03-23T09:00:24;3.43;;;3.13;;
14015;SDS011;7083;48.854;9.158;2024-03-23T09:03:04;3.40;;;3.10;;
14015;SDS011;7083;48.854;9.158;2024-03-23T09:08:16;5.43;;;2.87;;
14015;SDS011;7083;48.854;9.158;2024-03-23T09:10:55;7.73;;;3.97;;
14015;SDS011;7083;48.854;9.158;2024-03-23T09:14:01;4.37;;;3.80;;
14015;SDS011;7083;48.854;9.158;2024-03-23T09:16:28;6.77;;;3.80;;
14015;SDS011;7083;48.854;9.158;2024-03-23T09:18:55;5.10;;;3.93;;
14015;SDS011;7083;48.854;9.158;2024-03-23T09:21:23;9.87;;;4.40;;
14015;SDS011;7083;48.854;9.158;2024-03-23T09:23:52;5.03;;;4.50;;
14015;SDS011;7083;48.854;9.158;2024-03-23T09:26:19;4.83;;;4.03;;
14015;SDS011;7083;48.854;9.158;2024-03-23T09:28:45;10.00;;;5.10;;
14015;SDS011;7083;48.854;9.158;2024-03-23T09:31:21;8.80;;;5.50;;
14015;SDS011;7083;48.854;9.158;2024-03-23T09:33:50;6.93;;;4.63;;
14015;SDS011;7083;48.854;9.158;2024-03-23T09:36:38;7.67;;;4.43;;
14015;SDS011;7083;48.854;9.158;2024-03-23T09:39:09;7.57;;;5.80;;
14015;SDS011;7083;48.854;9.158;2024-03-23T09:41:38;5.50;;;4.37;;
14015;SDS011;7083;48.854;9.158;2024-03-23T09:44:06;10.23;;;4.17;;
14015;SDS011;7083;48.854;9.158;2024-03-23T09:46:45;10.27;;;5.20;;
14015;SDS011;7083;48.854;9.158;2024-03-23T09:49:11;8.13;;;4.60;;
14015;SDS011;7083;48.854;9.158;2024-03-23T09:51:42;5.27;;;4.33;;
14015;SDS011;7083;48.854;9.158;2024-03-23T09:54:17;8.57;;;4.67;;
14015;SDS011;7083;48.854;9.158;2024-03-23T09:56:44;6.13;;;5.53;;
14015;SDS011;7083;48.854;9.158;2024-03-23T09:59:12;5.40;;;4.40;;
14015;SDS011;7083;48.854;9.158;2024-03-23T10:02:03;6.80;;;5.70;;
14015;SDS011;7083;48.854;9.158;2024-03-23T10:04:53;9.23;;;5.00;;
14015;SDS011;7083;48.854;9.158;2024-03-23T10:07:28;11.07;;;5.73;;
14015;SDS011;7083;48.854;9.158;2024-03-23T10:09:54;7.53;;;5.63;;
14015;SDS011;7083;48.854;9.158;2024-03-23T10:12:20;5.57;;;5.00;;
14015;SDS011;7083;48.854;9.158;2024-03-23T10:14:58;6.10;;;4.87;;
14015;SDS011;7083;48.854;9.158;2024-03-23T10:17:34;8.70;;;5.37;;
14015;SDS011;7083;48.854;9.158;2024-03-23T10:20:09;8.10;;;5.27;;
14015;SDS011;7083;48.854;9.158;2024-03-23T10:22:41;8.80;;;4.63;;
14015;SDS011;7083;48.854;9.158;2024-03-23T10:25:08;6.23;;;5.13;;
14015;SDS011;7083;48.854;9.158;2024-03-23T10:27:38;5.33;;;4.83;;
14015;SDS011;7083;48.854;9.158;2024-03-23T10:30:08;6.67;;;4.80;;
14015;SDS011;7083;48.854;9.158;2024-03-23T10:32:38;8.90;;;5.33;;
14015;SDS011;7083;48.854;9.158;2024-03-23T10:37:49;5.47;;;4.87;;
14015;SDS011;7083;48.854;9.158;2024-03-23T10:40:31;9.63;;;5.47;;
14015;SDS011;7083;48.854;9.158;2024-03-23T10:42:58;6.77;;;4.67;;
14015;SDS011;7083;48.854;9.158;2024-03-23T10:45:31;7.73;;;5.27;;
14015;SDS011;7083;48.854;9.158;2024-03-23T10:48:04;6.43;;;5.17;;
14015;SDS011;7083;48.854;9.158;2024-03-23T10:50:32;8.80;;;5.63;;
14015;SDS011;7083;48.854;9.158;2024-03-23T10:53:01;8.43;;;5.83;;
14015;SDS011;7083;48.854;9.158;2024-03-23T10:55:27;7.73;;;5.20;;
14015;SDS011;7083;48.854;9.158;2024-03-23T10:57:55;11.87;;;6.93;;
14015;SDS011;7083;48.854;9.158;2024-03-23T11:00:23;11.13;;;6.90;;
14015;SDS011;7083;48.854;9.158;2024-03-23T11:02:51;8.07;;;6.37;;
14015;SDS011;7083;48.854;9.158;2024-03-23T11:05:30;7.87;;;5.53;;
14015;SDS011;7083;48.854;9.158;2024-03-23T11:07:57;5.03;;;4.63;;
14015;SDS011;7083;48.854;9.158;2024-03-23T11:10:28;7.73;;;5.03;;
14015;SDS011;7083;48.854;9.158;2024-03-23T11:12:55;7.93;;;4.43;;
14015;SDS011;7083;48.854;9.158;2024-03-23T11:15:21;7.67;;;5.77;;
14015;SDS011;7083;48.854;9.158;2024-03-23T11:18:01;5.97;;;5.30;;
14015;SDS011;7083;48.854;9.158;2024-03-23T11:20:31;7.40;;;5.40;;
14015;SDS011;7083;48.854;9.158;2024-03-23T11:22:58;6.17;;;5.67;;
14015;SDS011;7083;48.854;9.158;2024-03-23T11:25:25;7.47;;;6.03;;
14015;SDS011;7083;48.854;9.158;2024-03-23T11:27:54;9.40;;;6.97;;
14015;SDS011;7083;48.854;9.158;2024-03-23T11:30:22;6.07;;;5.10;;
14015;SDS011;7083;48.854;9.158;2024-03-23T11:32:50;6.37;;;5.17;;
14015;SDS011;7083;48.854;9.158;2024-03-23T11:35:29;9.40;;;6.30;;
14015;SDS011;7083;48.854;9.158;2024-03-23T11:38:04;7.83;;;6.17;;
14015;SDS011;7083;48.854;9.158;2024-03-23T11:40:31;6.13;;;5.17;;
14015;SDS011;7083;48.854;9.158;2024-03-23T11:43:00;5.10;;;4.70;;
14015;SDS011;7083;48.854;9.158;2024-03-23T12:21:50;7.50;;;2.87;;
14015;SDS011;7083;48.854;9.158;2024-03-23T12:24:16;4.90;;;2.57;;
14015;SDS011;7083;48.854;9.158;2024-03-23T12:26:43;7.90;;;3.23;;
14015;SDS011;7083;48.854;9.158;2024-03-23T12:29:08;5.13;;;2.97;;
14015;SDS011;7083;48.854;9.158;2024-03-23T12:31:35;3.73;;;3.00;;
14015;SDS011;7083;48.854;9.158;2024-03-23T12:34:01;10.00;;;3.80;;
14015;SDS011;7083;48.854;9.158;2024-03-23T12:36:29;6.90;;;3.20;;
14015;SDS011;7083;48.854;9.158;2024-03-23T12:38:55;3.93;;;3.00;;
14015;SDS011;7083;48.854;9.158;2024-03-23T12:41:22;5.50;;;2.90;;
14015;SDS011;7083;48.854;9.158;2024-03-23T12:43:50;6.33;;;3.77;;
14015;SDS011;7083;48.854;9.158;2024-03-23T12:46:16;7.50;;;3.73;;
14015;SDS011;7083;48.854;9.158;2024-03-23T12:48:44;4.53;;;3.67;;
14015;SDS011;7083;48.854;9.158;2024-03-23T12:51:10;3.33;;;3.03;;
14015;SDS011;7083;48.854;9.158;2024-03-23T12:53:37;7.13;;;3.43;;
14015;SDS011;7083;48.854;9.158;2024-03-23T12:56:04;7.23;;;3.87;;
14015;SDS011;7083;48.854;9.158;2024-03-23T12:58:30;9.83;;;3.63;;
14015;SDS011;7083;48.854;9.158;2024-03-23T13:00:57;8.93;;;4.33;;
14015;SDS011;7083;48.854;9.158;2024-03-23T13:03:23;6.10;;;3.97;;
14015;SDS011;7083;48.854;9.158;2024-03-23T13:05:51;6.23;;;3.23;;
14015;SDS011;7083;48.854;9.158;2024-03-23T13:08:17;7.60;;;3.53;;
14015;SDS011;7083;48.854;9.158;2024-03-23T13:10:45;7.77;;;3.63;;
14015;SDS011;7083;48.854;9.158;2024-03-23T13:13:12;5.83;;;2.80;;
14015;SDS011;7083;48.854;9.158;2024-03-23T13:15:38;9.97;;;4.50;;
14015;SDS011;7083;48.854;9.158;2024-03-23T13:18:05;7.67;;;3.60;;
14015;SDS011;7083;48.854;9.158;2024-03-23T13:20:31;4.43;;;3.13;;
14015;SDS011;7083;48.854;9.158;2024-03-23T13:22:58;3.07;;;2.77;;
14015;SDS011;7083;48.854;9.158;2024-03-23T13:25:24;4.23;;;3.07;;
14015;SDS011;7083;48.854;9.158;2024-03-23T13:27:52;6.53;;;2.50;;
14015;SDS011;7083;48.854;9.158;2024-03-23T13:30:18;4.50;;;2.47;;
14015;SDS011;7083;48.854;9.158;2024-03-23T13:32:44;8.70;;;3.73;;
14015;SDS011;7083;48.854;9.158;2024-03-23T13:35:10;5.23;;;3.53;;
14015;SDS011;7083;48.854;9.158;2024-03-23T13:37:37;4.50;;;2.57;;
14015;SDS011;7083;48.854;9.158;2024-03-23T13:40:02;3.20;;;2.70;;
14015;SDS011;7083;48.854;9.158;2024-03-23T13:42:30;5.80;;;2.80;;
14015;SDS011;7083;48.854;9.158;2024-03-23T13:44:57;8.23;;;2.67;;
14015;SDS011;7083;48.854;9.158;2024-03-23T13:47:23;5.83;;;2.03;;
14015;SDS011;7083;48.854;9.158;2024-03-23T13:49:49;8.47;;;4.10;;
14015;SDS011;7083;48.854;9.158;2024-03-23T13:52:16;4.03;;;2.50;;
14015;SDS011;7083;48.854;9.158;2024-03-23T13:54:43;6.43;;;1.97;;
14015;SDS011;7083;48.854;9.158;2024-03-23T13:57:11;6.03;;;2.30;;
14015;SDS011;7083;48.854;9.158;2024-03-23T13:59:37;4.37;;;2.10;;
14015;SDS011;7083;48.854;9.158;2024-03-23T14:02:05;4.20;;;1.93;;
14015;SDS011;7083;48.854;9.158;2024-03-23T14:04:30;3.70;;;2.47;;
14015;SDS011;7083;48.854;9.158;2024-03-23T14:06:57;2.90;;;1.93;;
14015;SDS011;7083;48.854;9.158;2024-03-23T14:09:23;3.13;;;2.03;;
14015;SDS011;7083;48.854;9.158;2024-03-23T14:11:51;7.53;;;3.57;;
14015;SDS011;7083;48.854;9.158;2024-03-23T14:14:16;2.77;;;2.50;;
14015;SDS011;7083;48.854;9.158;2024-03-23T14:16:43;5.80;;;2.17;;
14015;SDS011;7083;48.854;9.158;2024-03-23T14:19:11;3.23;;;2.40;;
14015;SDS011;7083;48.854;9.158;2024-03-23T14:21:37;4.13;;;2.30;;
14015;SDS011;7083;48.854;9.158;2024-03-23T14:24:04;2.27;;;1.87;;
14015;SDS011;7083;48.854;9.158;2024-03-23T14:26:31;2.47;;;1.73;;
14015;SDS011;7083;48.854;9.158;2024-03-23T14:28:56;1.63;;;1.53;;
14015;SDS011;7083;48.854;9.158;2024-03-23T14:31:23;1.87;;;1.77;;
14015;SDS011;7083;48.854;9.158;2024-03-23T14:33:50;17.63;;;3.70;;
14015;SDS011;7083;48.854;9.158;2024-03-23T14:36:18;2.67;;;2.00;;
14015;SDS011;7083;48.854;9.158;2024-03-23T14:38:46;2.57;;;2.33;;
14015;SDS011;7083;48.854;9.158;2024-03-23T14:41:13;2.47;;;1.70;;
14015;SDS011;7083;48.854;9.158;2024-03-23T14:43:39;2.03;;;1.30;;
14015;SDS011;7083;48.854;9.158;2024-03-23T14:46:08;2.50;;;1.40;;
14015;SDS011;7083;48.854;9.158;2024-03-23T14:48:35;2.23;;;1.40;;
14015;SDS011;7083;48.854;9.158;2024-03-23T14:51:02;3.47;;;1.20;;
14015;SDS011;7083;48.854;9.158;2024-03-23T14:53:31;4.03;;;2.10;;
14015;SDS011;7083;48.854;9.158;2024-03-23T14:55:58;2.10;;;1.53;;
14015;SDS011;7083;48.854;9.158;2024-03-23T14:58:25;4.27;;;2.13;;
14015;SDS011;7083;48.854;9.158;2024-03-23T15:00:53;4.33;;;1.90;;
14015;SDS011;7083;48.854;9.158;2024-03-23T15:03:24;2.63;;;1.60;;
14015;SDS011;7083;48.854;9.158;2024-03-23T15:05:52;2.57;;;2.00;;
14015;SDS011;7083;48.854;9.158;2024-03-23T15:08:19;5.03;;;2.00;;
14015;SDS011;7083;48.854;9.158;2024-03-23T15:10:47;5.70;;;2.50;;
14015;SDS011;7083;48.854;9.158;2024-03-23T15:13:13;5.87;;;2.03;;
14015;SDS011;7083;48.854;9.158;2024-03-23T15:15:40;5.23;;;2.00;;
14015;SDS011;7083;48.854;9.158;2024-03-23T15:18:09;5.27;;;1.80;;
14015;SDS011;7083;48.854;9.158;2024-03-23T15:20:37;2.97;;;1.60;;
14015;SDS011;7083;48.854;9.158;2024-03-23T15:23:04;3.40;;;2.03;;
14015;SDS011;7083;48.854;9.158;2024-03-23T15:25:33;1.63;;;1.53;;
14015;SDS011;7083;48.854;9.158;2024-03-23T15:28:03;1.70;;;1.60;;
14015;SDS011;7083;48.854;9.158;2024-03-23T15:30:30;1.77;;;1.27;;
14015;SDS011;7083;48.854;9.158;2024-03-23T15:32:56;3.83;;;1.67;;
14015;SDS011;7083;48.854;9.158;2024-03-23T15:35:22;1.73;;;1.60;;
14015;SDS011;7083;48.854;9.158;2024-03-23T15:37:48;2.63;;;1.90;;
14015;SDS011;7083;48.854;9.158;2024-03-23T15:40:16;3.57;;;1.80;;
14015;SDS011;7083;48.854;9.158;2024-03-23T15:42:41;2.23;;;1.70;;
14015;SDS011;7083;48.854;9.158;2024-03-23T15:45:10;1.20;;;1.10;;
14015;SDS011;7083;48.854;9.158;2024-03-23T15:47:36;2.23;;;1.20;;
14015;SDS011;7083;48.854;9.158;2024-03-23T15:50:03;3.03;;;1.13;;
14015;SDS011;7083;48.854;9.158;2024-03-23T15:52:33;1.43;;;1.03;;
14015;SDS011;7083;48.854;9.158;2024-03-23T15:55:01;1.30;;;1.20;;
14015;SDS011;7083;48.854;9.158;2024-03-23T15:57:28;1.63;;;1.40;;
14015;SDS011;7083;48.854;9.158;2024-03-23T15:59:55;3.45;;;1.42;;
14015;SDS011;7083;48.854;9.158;2024-03-23T16:02:22;1.10;;;1.00;;
14015;SDS011;7083;48.854;9.158;2024-03-23T16:04:49;1.37;;;1.27;;
14015;SDS011;7083;48.854;9.158;2024-03-23T16:07:14;2.40;;;0.97;;
14015;SDS011;7083;48.854;9.158;2024-03-23T16:09:41;1.33;;;1.23;;
14015;SDS011;7083;48.854;9.158;2024-03-23T16:12:07;1.97;;;1.87;;
14015;SDS011;7083;48.854;9.158;2024-03-23T16:14:33;0.97;;;0.97;;
14015;SDS011;7083;48.854;9.158;2024-03-23T16:16:59;2.43;;;1.37;;
14015;SDS011;7083;48.854;9.158;2024-03-23T16:19:27;1.63;;;1.53;;
14015;SDS011;7083;48.854;9.158;2024-03-23T16:21:53;1.43;;;1.13;;
14015;SDS011;7083;48.854;9.158;2024-03-23T16:24:20;1.50;;;1.40;;
14015;SDS011;7083;48.854;9.158;2024-03-23T16:26:46;1.47;;;1.37;;
14015;SDS011;7083;48.854;9.158;2024-03-23T16:29:14;1.33;;;1.30;;
14015;SDS011;7083;48.854;9.158;2024-03-23T16:31:40;1.40;;;1.30;;
14015;SDS011;7083;48.854;9.158;2024-03-23T16:34:07;1.70;;;1.60;;
14015;SDS011;7083;48.854;9.158;2024-03-23T16:36:34;1.70;;;1.50;;
14015;SDS011;7083;48.854;9.158;2024-03-23T16:39:01;1.53;;;1.43;;
14015;SDS011;7083;48.854;9.158;2024-03-23T16:41:26;2.73;;;1.50;;
14015;SDS011;7083;48.854;9.158;2024-03-23T16:43:53;1.57;;;1.30;;
14015;SDS011;7083;48.854;9.158;2024-03-23T16:46:19;1.67;;;1.27;;
14015;SDS011;7083;48.854;9.158;2024-03-23T16:48:45;1.70;;;1.20;;
14015;SDS011;7083;48.854;9.158;2024-03-23T16:51:11;3.53;;;1.80;;
14015;SDS011;7083;48.854;9.158;2024-03-23T16:53:40;1.23;;;1.13;;